Horseheads, New York
Current Conditions -  °F | °C
As of 9:53 AM on Sunday 23 Nov 2014 (Local Time) from KELM Reporting Station
Overcast Overcast  
Wind Chill: 49°   Ceiling: 4700
Heat Index: 49°   Visibility: 10mi
Dew Point: 35°   Wind: 3mph
Humidity: 59%   Direction: 240°WSW
Pressure: 30.09"   Gusts: NA
Location:  42.17°N, 76.82°W
Report Text: KELM 231453Z 24003KT 10SM BKN047 OVC055 09/02 A3009 RMK AO2 SLP195 T00940017 50003
Loading
Personal Weather Stations






























Interactive Weather Map New forecast layout! Learn more

10-Day Weather Forecast

Advertisements
Track Severe Weather on mobile